createdAt,value
2017-09-15T00:00:19.528Z,82.40
2017-09-15T00:02:21.262Z,82.70
2017-09-15T00:04:22.221Z,82.60
2017-09-15T00:06:23.918Z,82.90
2017-09-15T00:08:24.876Z,82.80
2017-09-15T00:10:25.905Z,83.00
2017-09-15T00:12:26.856Z,83.10
2017-09-15T00:14:27.821Z,83.60
2017-09-15T00:16:29.521Z,83.50
2017-09-15T00:18:30.487Z,83.50
2017-09-15T00:20:31.475Z,83.30
2017-09-15T00:22:32.426Z,83.20
2017-09-15T00:24:33.380Z,83.30
2017-09-15T00:26:34.335Z,83.30
2017-09-15T00:28:35.303Z,83.20
2017-09-15T00:30:36.253Z,83.20
2017-09-15T00:32:37.257Z,83.50
2017-09-15T00:34:38.952Z,83.00
2017-09-15T00:36:39.904Z,83.00
2017-09-15T00:38:40.876Z,83.00
2017-09-15T00:40:42.580Z,83.30
2017-09-15T00:42:43.533Z,83.30
2017-09-15T00:44:44.493Z,83.70
2017-09-15T00:46:45.453Z,83.30
2017-09-15T00:48:46.436Z,83.50
2017-09-15T00:50:48.163Z,84.20
2017-09-15T00:52:49.113Z,83.90
2017-09-15T00:54:50.068Z,84.20
2017-09-15T00:56:51.040Z,84.40
2017-09-15T00:58:52.743Z,85.10
2017-09-15T01:00:53.697Z,84.70
2017-09-15T01:02:54.644Z,83.80
2017-09-15T01:04:55.601Z,83.80
2017-09-15T01:06:57.313Z,83.70
2017-09-15T01:08:58.290Z,83.70
2017-09-15T01:11:00.892Z,83.60
2017-09-15T01:13:01.864Z,83.60
2017-09-15T01:15:02.829Z,83.70
2017-09-15T01:17:04.524Z,83.30
2017-09-15T01:19:05.477Z,83.20
2017-09-15T01:21:06.437Z,83.20
2017-09-15T01:23:07.389Z,82.80
2017-09-15T01:25:09.089Z,83.20
2017-09-15T01:27:10.049Z,83.10
2017-09-15T01:29:11.000Z,83.20
2017-09-15T01:31:11.941Z,83.10
2017-09-15T01:33:13.633Z,83.10
2017-09-15T01:35:14.624Z,83.80
2017-09-15T01:37:15.583Z,83.10
2017-09-15T01:39:16.542Z,83.10
2017-09-15T01:41:17.497Z,83.20
2017-09-15T01:43:18.461Z,83.50
2017-09-15T01:45:20.183Z,83.30
2017-09-15T01:47:21.149Z,83.20
2017-09-15T01:49:22.884Z,83.10
2017-09-15T01:51:23.832Z,83.00
2017-09-15T01:53:24.792Z,83.00
2017-09-15T01:55:26.512Z,82.70
2017-09-15T01:57:27.472Z,82.60
2017-09-15T01:59:28.432Z,82.60
2017-09-15T02:01:29.380Z,82.50
2017-09-15T02:03:30.336Z,82.60
2017-09-15T02:05:31.289Z,82.60
2017-09-15T02:07:32.245Z,82.50
2017-09-15T02:09:33.200Z,82.70
2017-09-15T02:11:34.920Z,82.60
2017-09-15T02:13:35.863Z,82.70
2017-09-15T02:15:36.823Z,82.90
2017-09-15T02:17:38.545Z,83.00
2017-09-15T02:19:39.517Z,82.90
2017-09-15T02:21:40.491Z,83.30
2017-09-15T02:23:41.454Z,83.10
2017-09-15T02:25:42.406Z,83.70
2017-09-15T02:27:43.358Z,83.40
2017-09-15T02:29:44.329Z,83.80
2017-09-15T02:31:45.294Z,83.70
2017-09-15T02:33:46.258Z,83.80
2017-09-15T02:35:47.957Z,83.90
2017-09-15T02:37:48.932Z,83.80
2017-09-15T02:39:49.876Z,84.00
2017-09-15T02:41:51.598Z,84.40
2017-09-15T02:43:52.549Z,84.50
2017-09-15T02:45:53.518Z,84.30
2017-09-15T02:47:54.481Z,84.20
2017-09-15T02:49:55.425Z,84.00
2017-09-15T02:51:56.384Z,84.20
2017-09-15T02:53:57.343Z,84.10
2017-09-15T02:55:59.045Z,85.00
2017-09-15T02:58:00.018Z,84.20
2017-09-15T03:00:00.972Z,84.30
2017-09-15T03:02:02.677Z,84.50
2017-09-15T03:04:03.631Z,84.40
2017-09-15T03:06:04.589Z,84.60
2017-09-15T03:08:06.290Z,84.30
2017-09-15T03:10:07.241Z,84.30
2017-09-15T03:12:08.189Z,84.60
2017-09-15T03:14:09.140Z,84.80
2017-09-15T03:16:10.093Z,85.00
2017-09-15T03:18:11.808Z,84.70
2017-09-15T03:20:12.774Z,84.70
2017-09-15T03:22:14.502Z,84.60
2017-09-15T03:24:15.456Z,84.60
2017-09-15T03:26:16.399Z,84.70
2017-09-15T03:28:18.109Z,84.90
2017-09-15T03:30:19.085Z,84.80
2017-09-15T03:32:20.797Z,84.90
2017-09-15T03:34:21.764Z,84.80
2017-09-15T03:36:22.727Z,84.70
2017-09-15T03:38:24.427Z,84.80
2017-09-15T03:40:25.373Z,84.60
2017-09-15T03:42:26.333Z,84.70
2017-09-15T03:44:27.276Z,84.80
2017-09-15T03:46:28.989Z,84.80
2017-09-15T03:48:29.953Z,84.80
2017-09-15T03:50:30.905Z,85.10
2017-09-15T03:52:32.609Z,85.60
2017-09-15T03:54:33.557Z,85.50
2017-09-15T03:56:34.520Z,85.50
2017-09-15T03:58:36.221Z,85.60
2017-09-15T04:00:37.189Z,85.60
2017-09-15T04:02:38.925Z,86.00
2017-09-15T04:04:39.890Z,86.00
2017-09-15T04:06:41.592Z,86.50
2017-09-15T04:08:42.564Z,86.20
2017-09-15T04:10:43.542Z,85.80
2017-09-15T04:12:44.510Z,86.20
2017-09-15T04:14:45.473Z,86.30
2017-09-15T04:16:46.445Z,86.30
2017-09-15T04:18:48.162Z,86.40
2017-09-15T04:20:49.124Z,86.40
2017-09-15T04:22:50.809Z,86.30
2017-09-15T04:24:51.781Z,86.30
2017-09-15T04:26:52.740Z,86.50
2017-09-15T04:28:53.701Z,86.60
2017-09-15T04:30:54.664Z,86.70
2017-09-15T04:32:55.613Z,86.40
2017-09-15T04:34:56.564Z,86.30
2017-09-15T04:36:57.512Z,86.60
2017-09-15T04:38:58.538Z,86.40
2017-09-15T04:40:59.514Z,87.20
2017-09-15T04:43:00.482Z,86.60
2017-09-15T04:45:01.445Z,86.60
2017-09-15T04:47:02.468Z,86.90
2017-09-15T04:49:03.429Z,86.60
2017-09-15T04:51:04.381Z,86.70
2017-09-15T04:53:06.072Z,86.60
2017-09-15T04:55:07.047Z,86.50
2017-09-15T04:57:08.000Z,86.70
2017-09-15T04:59:09.706Z,86.50
2017-09-15T05:01:10.676Z,86.40
2017-09-15T05:03:11.635Z,86.60
2017-09-15T05:05:12.603Z,86.60
2017-09-15T05:07:13.557Z,86.70
2017-09-15T05:09:14.509Z,86.60
2017-09-15T05:11:15.486Z,86.50
2017-09-15T05:13:16.456Z,86.40
2017-09-15T05:15:17.417Z,86.30
2017-09-15T05:17:18.382Z,85.90
2017-09-15T05:19:19.336Z,85.90
2017-09-15T05:21:20.297Z,86.40
2017-09-15T05:23:21.255Z,85.50
2017-09-15T05:25:22.217Z,85.20
2017-09-15T05:27:23.992Z,84.60
2017-09-15T05:29:24.957Z,84.60
2017-09-15T05:31:25.926Z,84.20
2017-09-15T05:33:26.887Z,84.20
2017-09-15T05:35:28.602Z,83.80
2017-09-15T05:37:29.561Z,83.80
2017-09-15T05:39:30.521Z,83.60
2017-09-15T05:41:31.512Z,82.70
2017-09-15T05:43:32.461Z,82.80
2017-09-15T05:45:33.428Z,82.60
2017-09-15T05:47:34.384Z,82.80
2017-09-15T05:49:35.346Z,82.80
2017-09-15T05:51:36.317Z,81.80
2017-09-15T05:53:38.017Z,81.80
2017-09-15T05:55:38.976Z,81.70
2017-09-15T05:57:39.946Z,81.70
2017-09-15T05:59:41.644Z,81.00
2017-09-15T06:01:42.609Z,80.90
2017-09-15T06:03:43.559Z,80.50
2017-09-15T06:05:45.269Z,80.10
2017-09-15T06:07:46.241Z,80.10
2017-09-15T06:09:47.192Z,80.90
2017-09-15T06:11:48.900Z,79.30
2017-09-15T06:13:49.872Z,79.30
2017-09-15T06:15:50.825Z,80.80
2017-09-15T06:17:52.530Z,81.10
2017-09-15T06:19:53.492Z,81.30
2017-09-15T06:21:54.461Z,79.60
2017-09-15T06:23:55.408Z,80.90
2017-09-15T06:25:56.367Z,80.90
2017-09-15T06:27:57.346Z,79.80
2017-09-15T06:29:59.041Z,78.90
2017-09-15T06:32:00.009Z,78.90
2017-09-15T06:34:00.982Z,78.90
2017-09-15T06:36:02.679Z,76.90
2017-09-15T06:38:03.644Z,76.90
2017-09-15T06:40:04.606Z,76.00
2017-09-15T06:42:06.317Z,75.90
2017-09-15T06:44:07.282Z,75.90
2017-09-15T06:46:08.984Z,74.20
2017-09-15T06:48:09.944Z,73.40
2017-09-15T06:50:10.894Z,72.10
2017-09-15T06:52:11.850Z,71.90
2017-09-15T06:54:13.540Z,71.20
2017-09-15T06:56:14.516Z,71.20
2017-09-15T06:58:15.472Z,69.50
2017-09-15T07:00:17.188Z,69.10
2017-09-15T07:02:18.147Z,69.00
2017-09-15T07:04:19.088Z,69.00
2017-09-15T07:06:20.029Z,67.50
2017-09-15T07:08:21.735Z,69.80
2017-09-15T07:10:22.680Z,69.20
2017-09-15T07:12:23.642Z,69.60
2017-09-15T07:14:24.597Z,69.20
2017-09-15T07:16:26.293Z,70.30
2017-09-15T07:18:27.249Z,70.30
2017-09-15T07:20:28.189Z,69.80
2017-09-15T07:22:29.145Z,71.40
2017-09-15T07:24:30.087Z,69.90
2017-09-15T07:26:31.773Z,67.90
2017-09-15T07:28:32.728Z,67.80
2017-09-15T07:30:33.732Z,67.80
2017-09-15T07:32:34.683Z,68.20
2017-09-15T07:34:35.625Z,66.60
2017-09-15T07:36:36.568Z,67.00
2017-09-15T07:38:37.520Z,67.80
2017-09-15T07:40:38.460Z,67.60
2017-09-15T07:42:39.405Z,67.10
2017-09-15T07:44:40.344Z,65.80
2017-09-15T07:46:41.298Z,68.30
2017-09-15T07:48:42.998Z,68.40
2017-09-15T07:50:43.944Z,68.50
2017-09-15T07:52:44.897Z,68.50
2017-09-15T07:54:45.845Z,68.30
2017-09-15T07:56:47.532Z,69.60
2017-09-15T07:58:48.482Z,69.40
2017-09-15T08:00:49.418Z,67.40
2017-09-15T08:02:50.377Z,69.90
2017-09-15T08:04:51.316Z,68.80
2017-09-15T08:06:52.265Z,68.00
2017-09-15T08:08:53.228Z,66.10
2017-09-15T08:10:54.913Z,63.90
2017-09-15T08:12:55.864Z,64.00
2017-09-15T08:14:56.802Z,61.60
2017-09-15T08:16:57.752Z,63.10
2017-09-15T08:18:58.726Z,59.90
2017-09-15T08:21:00.413Z,61.60
2017-09-15T08:23:01.364Z,61.60
2017-09-15T08:25:03.062Z,60.80
2017-09-15T08:27:04.745Z,63.10
2017-09-15T08:29:05.712Z,62.90
2017-09-15T08:31:06.654Z,61.80
2017-09-15T08:33:07.588Z,64.50
2017-09-15T08:35:08.533Z,62.70
2017-09-15T08:37:09.476Z,59.50
2017-09-15T08:39:11.172Z,61.90
2017-09-15T08:41:12.112Z,61.40
2017-09-15T08:43:13.052Z,60.20
2017-09-15T08:45:13.996Z,63.30
2017-09-15T08:47:14.941Z,61.90
2017-09-15T08:49:15.898Z,62.80
2017-09-15T08:51:17.596Z,65.30
2017-09-15T08:53:18.561Z,65.40
2017-09-15T08:55:19.508Z,64.60
2017-09-15T08:57:20.454Z,64.20
2017-09-15T08:59:21.412Z,62.50
2017-09-15T09:01:23.109Z,63.70
2017-09-15T09:03:24.064Z,63.40
2017-09-15T09:05:25.012Z,64.80
2017-09-15T09:07:25.968Z,64.80
2017-09-15T09:09:27.666Z,67.60
2017-09-15T09:11:28.609Z,67.50
2017-09-15T09:13:29.564Z,64.90
2017-09-15T09:15:30.516Z,66.50
2017-09-15T09:17:31.482Z,66.60
2017-09-15T09:19:33.176Z,65.60
2017-09-15T09:21:34.128Z,65.40
2017-09-15T09:23:35.087Z,65.10
2017-09-15T09:25:36.798Z,66.00
2017-09-15T09:27:37.742Z,66.00
2017-09-15T09:29:38.706Z,66.00
2017-09-15T09:31:40.404Z,63.60
2017-09-15T09:33:41.356Z,63.60
2017-09-15T09:35:42.325Z,63.60
2017-09-15T09:37:43.278Z,62.90
2017-09-15T09:39:44.236Z,61.60
2017-09-15T09:41:45.189Z,59.50
2017-09-15T09:43:46.145Z,60.40
2017-09-15T09:45:47.108Z,58.50
2017-09-15T09:47:48.796Z,57.60
2017-09-15T09:49:50.214Z,57.40
2017-09-15T09:51:51.909Z,57.40
2017-09-15T09:53:52.866Z,57.20
2017-09-15T09:55:54.582Z,57.40
2017-09-15T09:57:55.536Z,58.00
2017-09-15T09:59:56.508Z,58.10
2017-09-15T10:01:57.470Z,59.70
2017-09-15T10:03:59.165Z,57.50
2017-09-15T10:06:00.124Z,57.40
2017-09-15T10:08:01.084Z,58.10
2017-09-15T10:10:02.782Z,57.30
2017-09-15T10:12:03.741Z,57.10
2017-09-15T10:14:04.696Z,57.20
2017-09-15T10:16:05.653Z,55.50
2017-09-15T10:18:07.350Z,54.60
2017-09-15T10:20:08.303Z,54.40
2017-09-15T10:22:09.273Z,58.40
2017-09-15T10:24:10.973Z,53.50
2017-09-15T10:26:11.963Z,53.60
2017-09-15T10:28:13.656Z,55.70
2017-09-15T10:30:14.609Z,55.70
2017-09-15T10:32:15.573Z,55.40
2017-09-15T10:34:16.520Z,56.50
2017-09-15T10:36:18.209Z,59.70
2017-09-15T10:38:19.168Z,59.70
2017-09-15T10:40:20.133Z,57.80
2017-09-15T10:42:21.092Z,59.50
2017-09-15T10:44:22.044Z,60.30
2017-09-15T10:46:23.000Z,59.00
2017-09-15T10:48:23.957Z,59.00
2017-09-15T10:50:24.912Z,58.20
2017-09-15T10:52:25.872Z,58.70
2017-09-15T10:54:27.557Z,60.30
2017-09-15T10:56:28.509Z,60.30
2017-09-15T10:58:35.456Z,59.20
2017-09-15T11:00:36.405Z,60.60
2017-09-15T11:02:37.365Z,59.40
2017-09-15T11:04:38.324Z,59.80
2017-09-15T11:06:40.024Z,59.50
2017-09-15T11:08:40.986Z,59.50
2017-09-15T11:10:41.924Z,58.50
2017-09-15T11:12:42.871Z,58.90
2017-09-15T11:14:43.821Z,58.90
2017-09-15T11:16:45.508Z,58.40
2017-09-15T11:18:46.469Z,58.40
2017-09-15T11:20:47.416Z,57.70
2017-09-15T11:22:48.385Z,57.20
2017-09-15T11:24:50.072Z,55.30
2017-09-15T11:26:51.017Z,55.40
2017-09-15T11:28:51.996Z,56.10
2017-09-15T11:30:52.968Z,54.50
2017-09-15T11:32:53.928Z,56.10
2017-09-15T11:34:54.871Z,50.10
2017-09-15T11:36:55.821Z,49.00
2017-09-15T11:38:56.788Z,50.00
2017-09-15T11:40:57.758Z,53.50
2017-09-15T11:42:58.704Z,51.40
2017-09-15T11:44:59.670Z,51.40
2017-09-15T11:47:00.626Z,54.00
2017-09-15T11:49:02.320Z,56.30
2017-09-15T11:51:10.272Z,56.50
2017-09-15T11:53:11.289Z,57.70
2017-09-15T11:55:12.232Z,56.80
2017-09-15T11:57:13.181Z,55.10
2017-09-15T11:59:14.876Z,57.90
2017-09-15T12:01:15.828Z,57.00
2017-09-15T12:03:16.778Z,55.00
2017-09-15T12:05:17.743Z,58.50
2017-09-15T12:07:19.450Z,55.70
2017-09-15T12:09:20.412Z,55.60
2017-09-15T12:11:21.377Z,57.10
2017-09-15T12:13:23.069Z,55.70
2017-09-15T12:15:24.021Z,56.00
2017-09-15T12:17:24.993Z,57.00
2017-09-15T12:19:26.689Z,55.30
2017-09-15T12:21:27.642Z,55.30
2017-09-15T12:23:28.604Z,55.60
2017-09-15T12:25:29.557Z,56.10
2017-09-15T12:27:31.245Z,57.00
2017-09-15T12:29:32.215Z,56.90
2017-09-15T12:31:33.176Z,54.50
2017-09-15T12:33:34.125Z,57.00
2017-09-15T12:35:35.826Z,56.50
2017-09-15T12:37:36.773Z,56.60
2017-09-15T12:39:37.727Z,54.90
2017-09-15T12:41:38.697Z,55.40
2017-09-15T12:43:39.657Z,57.60
2017-09-15T12:45:40.617Z,59.10
2017-09-15T12:47:41.569Z,58.10
2017-09-15T12:49:42.516Z,57.00
2017-09-15T12:51:44.209Z,59.70
2017-09-15T12:53:45.161Z,59.70
2017-09-15T12:55:46.116Z,61.20
2017-09-15T12:57:47.065Z,61.00
2017-09-15T12:59:48.012Z,62.00
2017-09-15T13:01:49.701Z,59.80
2017-09-15T13:03:50.652Z,60.00
2017-09-15T13:05:51.618Z,58.50
2017-09-15T13:07:52.564Z,56.90
2017-09-15T13:09:53.504Z,57.60
2017-09-15T13:11:55.192Z,53.60
2017-09-15T13:13:56.137Z,53.20
2017-09-15T13:15:57.169Z,55.60
2017-09-15T13:17:58.127Z,53.20
2017-09-15T13:19:59.087Z,53.40
2017-09-15T13:22:00.032Z,51.60
2017-09-15T13:24:00.971Z,54.90
2017-09-15T13:26:01.946Z,51.70
2017-09-15T13:28:02.893Z,53.30
2017-09-15T13:30:03.853Z,54.80
2017-09-15T13:32:04.805Z,52.50
2017-09-15T13:34:05.762Z,55.50
2017-09-15T13:36:07.452Z,56.90
2017-09-15T13:38:08.406Z,56.80
2017-09-15T13:40:09.365Z,56.70
2017-09-15T13:42:10.322Z,58.10
2017-09-15T13:44:12.013Z,60.40
2017-09-15T13:46:13.039Z,60.40
2017-09-15T13:48:14.033Z,58.30
2017-09-15T13:50:14.993Z,59.80
2017-09-15T13:52:15.977Z,58.10
2017-09-15T13:54:16.933Z,59.30
2017-09-15T13:56:17.912Z,59.40
2017-09-15T13:58:18.864Z,56.80
2017-09-15T14:00:19.836Z,58.50
2017-09-15T14:02:20.792Z,60.10
2017-09-15T14:04:22.480Z,56.80
2017-09-15T14:06:23.442Z,57.00
2017-09-15T14:08:24.426Z,57.80
2017-09-15T14:10:26.115Z,55.40
2017-09-15T14:12:27.088Z,55.20
2017-09-15T14:14:28.032Z,56.30
2017-09-15T14:16:29.005Z,56.40
2017-09-15T14:18:29.975Z,57.50
2017-09-15T14:20:30.917Z,58.00
2017-09-15T14:22:31.869Z,60.00
2017-09-15T14:24:32.804Z,58.10
2017-09-15T14:26:33.752Z,58.60
2017-09-15T14:28:35.448Z,57.20
2017-09-15T14:30:36.392Z,57.00
2017-09-15T14:32:37.381Z,58.70
2017-09-15T14:34:39.077Z,58.50
2017-09-15T14:36:40.031Z,58.50
2017-09-15T14:38:41.011Z,59.60
2017-09-15T14:40:42.713Z,59.10
2017-09-15T14:42:43.656Z,58.80
2017-09-15T14:44:44.621Z,57.10
2017-09-15T14:46:45.576Z,57.40
2017-09-15T14:48:47.285Z,56.80
2017-09-15T14:50:48.248Z,56.80
2017-09-15T14:52:49.953Z,54.10
2017-09-15T14:54:50.905Z,54.00
2017-09-15T14:56:51.869Z,55.50
2017-09-15T14:58:52.832Z,54.70
2017-09-15T15:00:53.801Z,55.20
2017-09-15T15:02:55.502Z,55.40
2017-09-15T15:04:57.204Z,56.10
2017-09-15T15:06:58.148Z,56.80
2017-09-15T15:08:59.098Z,55.30
2017-09-15T15:11:00.057Z,56.10
2017-09-15T15:13:01.748Z,56.20
2017-09-15T15:15:02.764Z,55.90
2017-09-15T15:17:03.724Z,53.30
2017-09-15T15:19:04.684Z,54.90
2017-09-15T15:21:05.641Z,56.60
2017-09-15T15:23:06.585Z,55.90
2017-09-15T15:25:07.538Z,55.70
2017-09-15T15:27:09.229Z,57.40
2017-09-15T15:29:10.229Z,57.40
2017-09-15T15:31:11.916Z,56.70
2017-09-15T15:33:12.870Z,56.80
2017-09-15T15:35:13.826Z,57.80
2017-09-15T15:37:14.780Z,57.50
2017-09-15T15:39:23.529Z,56.70
2017-09-15T15:41:24.482Z,56.70
2017-09-15T15:43:25.433Z,58.20
2017-09-15T15:45:26.405Z,58.10
2017-09-15T15:47:28.109Z,58.30
2017-09-15T15:49:29.086Z,58.30
2017-09-15T15:51:30.044Z,58.30
2017-09-15T15:53:31.740Z,58.30
2017-09-15T15:55:32.705Z,57.60
2017-09-15T15:57:33.668Z,59.00
2017-09-15T15:59:35.377Z,58.40
2017-09-15T16:01:36.334Z,58.40
2017-09-15T16:03:37.321Z,57.00
2017-09-15T16:05:38.292Z,57.00
2017-09-15T16:07:39.256Z,58.30
2017-09-15T16:09:40.213Z,59.80
2017-09-15T16:11:41.168Z,58.50
2017-09-15T16:13:42.128Z,57.60
2017-09-15T16:15:43.089Z,58.80
2017-09-15T16:17:44.032Z,58.30
2017-09-15T16:19:44.975Z,59.60
2017-09-15T16:21:46.699Z,58.50
2017-09-15T16:23:47.650Z,58.40
2017-09-15T16:25:48.628Z,59.20
2017-09-15T16:27:49.594Z,62.20
2017-09-15T16:29:50.615Z,61.90
2017-09-15T16:31:51.600Z,64.20
2017-09-15T16:33:52.621Z,64.20
2017-09-15T16:35:53.591Z,64.50
2017-09-15T16:38:01.308Z,63.10
2017-09-15T16:40:08.345Z,63.00
2017-09-15T16:42:15.345Z,63.00
2017-09-15T16:44:23.138Z,64.40
2017-09-15T16:46:31.010Z,62.80
2017-09-15T16:48:45.101Z,62.80
2017-09-15T16:50:46.069Z,62.40
2017-09-15T16:52:47.029Z,63.00
2017-09-15T16:54:48.024Z,62.00
2017-09-15T16:56:48.968Z,64.40
2017-09-15T16:58:49.921Z,62.90
2017-09-15T17:00:50.864Z,63.50
2017-09-15T17:02:51.816Z,63.50
2017-09-15T17:04:52.765Z,64.10
2017-09-15T17:06:53.713Z,64.00
2017-09-15T17:09:01.671Z,64.70
2017-09-15T17:11:02.616Z,64.90
2017-09-15T17:13:03.620Z,64.30
2017-09-15T17:15:05.304Z,65.30
2017-09-15T17:17:06.248Z,65.30
2017-09-15T17:19:07.196Z,65.90
2017-09-15T17:21:08.136Z,67.10
2017-09-15T17:23:09.085Z,66.80
2017-09-15T17:25:10.021Z,67.30
2017-09-15T17:27:10.966Z,67.20
2017-09-15T17:29:11.919Z,67.00
2017-09-15T17:31:13.612Z,68.30
2017-09-15T17:33:14.558Z,68.40
2017-09-15T17:35:15.496Z,68.50
2017-09-15T17:37:16.443Z,69.30
2017-09-15T17:39:17.436Z,69.70
2017-09-15T17:41:18.381Z,70.00
2017-09-15T17:43:19.332Z,68.40
2017-09-15T17:45:20.267Z,69.90
2017-09-15T17:47:21.221Z,68.70
2017-09-15T17:49:22.173Z,69.40
2017-09-15T17:51:23.118Z,69.20
2017-09-15T17:53:24.809Z,69.80
2017-09-15T17:55:25.768Z,69.80
2017-09-15T17:57:26.708Z,69.80
2017-09-15T17:59:27.657Z,70.30
2017-09-15T18:01:28.605Z,70.70
2017-09-15T18:03:29.556Z,71.00
2017-09-15T18:05:31.255Z,71.20
2017-09-15T18:07:32.200Z,71.20
2017-09-15T18:09:33.165Z,71.70
2017-09-15T18:11:34.105Z,72.20
2017-09-15T18:13:35.058Z,72.20
2017-09-15T18:15:36.748Z,72.80
2017-09-15T18:17:37.693Z,72.80
2017-09-15T18:19:38.644Z,72.90
2017-09-15T18:21:39.592Z,72.90
2017-09-15T18:23:40.538Z,73.20
2017-09-15T18:25:41.488Z,73.40
2017-09-15T18:27:43.188Z,74.20
2017-09-15T18:29:44.144Z,74.20
2017-09-15T18:31:45.080Z,74.40
2017-09-15T18:33:46.025Z,74.40
2017-09-15T18:35:46.972Z,74.70
2017-09-15T18:37:55.693Z,75.10
2017-09-15T18:39:57.388Z,75.20
2017-09-15T18:41:58.357Z,75.10
2017-09-15T18:43:59.300Z,75.10
2017-09-15T18:46:00.259Z,74.50
2017-09-15T18:48:01.954Z,73.00
2017-09-15T18:50:02.911Z,73.00
2017-09-15T18:52:03.857Z,73.10
2017-09-15T18:54:04.796Z,72.60
2017-09-15T18:56:05.769Z,72.60
2017-09-15T18:58:06.725Z,72.70
2017-09-15T19:00:07.664Z,72.90
2017-09-15T19:02:08.620Z,72.70
2017-09-15T19:04:09.568Z,72.50
2017-09-15T19:06:10.530Z,72.50
2017-09-15T19:08:12.221Z,72.30
2017-09-15T19:10:13.173Z,72.30
2017-09-15T19:12:14.120Z,72.40
2017-09-15T19:14:15.068Z,71.70
2017-09-15T19:16:16.026Z,71.10
2017-09-15T19:18:17.714Z,71.70
2017-09-15T19:20:18.674Z,71.60
2017-09-15T19:22:20.368Z,72.90
2017-09-15T19:24:22.057Z,72.80
2017-09-15T19:26:23.005Z,72.80
2017-09-15T19:28:23.953Z,72.40
2017-09-15T19:30:24.958Z,72.50
2017-09-15T19:32:25.908Z,72.70
2017-09-15T19:34:26.885Z,73.90
2017-09-15T19:36:27.835Z,73.30
2017-09-15T19:38:29.516Z,73.30
2017-09-15T19:40:30.478Z,73.30
2017-09-15T19:42:31.437Z,74.30
2017-09-15T19:44:32.380Z,73.80
2017-09-15T19:46:33.345Z,73.80
2017-09-15T19:48:34.297Z,73.30
2017-09-15T19:50:35.254Z,73.20
2017-09-15T19:52:36.213Z,73.30
2017-09-15T19:54:37.164Z,73.40
2017-09-15T19:56:38.864Z,74.20
2017-09-15T19:58:39.817Z,74.20
2017-09-15T20:00:40.768Z,74.20
2017-09-15T20:02:41.730Z,74.20
2017-09-15T20:04:43.441Z,74.00
2017-09-15T20:06:44.396Z,74.00
2017-09-15T20:08:45.347Z,74.90
2017-09-15T20:10:47.045Z,74.30
2017-09-15T20:12:48.005Z,74.30
2017-09-15T20:14:48.961Z,74.00
2017-09-15T20:16:49.908Z,74.40
2017-09-15T20:18:51.601Z,75.10
2017-09-15T20:20:52.558Z,75.00
2017-09-15T20:22:53.522Z,74.90
2017-09-15T20:24:54.469Z,75.70
2017-09-15T20:26:56.173Z,75.20
2017-09-15T20:28:57.141Z,75.20
2017-09-15T20:30:58.100Z,75.50
2017-09-15T20:32:59.057Z,75.60
2017-09-15T20:35:00.013Z,75.70
2017-09-15T20:37:00.969Z,75.50
2017-09-15T20:39:01.959Z,75.30
2017-09-15T20:41:02.926Z,75.80
2017-09-15T20:43:03.880Z,75.70
2017-09-15T20:45:04.842Z,75.50
2017-09-15T20:47:06.543Z,76.00
2017-09-15T20:49:07.541Z,76.10
2017-09-15T20:51:09.228Z,76.00
2017-09-15T20:53:10.189Z,76.20
2017-09-15T20:55:11.140Z,78.10
2017-09-15T20:57:12.089Z,77.10
2017-09-15T20:59:13.796Z,77.00
2017-09-15T21:01:14.756Z,77.70
2017-09-15T21:03:15.709Z,77.40
2017-09-15T21:05:16.669Z,77.10
2017-09-15T21:07:17.616Z,77.00
2017-09-15T21:09:18.576Z,76.80
2017-09-15T21:11:19.528Z,76.70
2017-09-15T21:13:20.482Z,76.90
2017-09-15T21:15:21.441Z,76.40
2017-09-15T21:17:22.401Z,75.60
2017-09-15T21:19:23.366Z,77.10
2017-09-15T21:21:24.309Z,76.20
2017-09-15T21:23:25.268Z,77.20
2017-09-15T21:25:26.984Z,76.60
2017-09-15T21:27:27.943Z,76.60
2017-09-15T21:29:28.896Z,76.70
2017-09-15T21:31:30.592Z,77.10
2017-09-15T21:33:31.558Z,77.10
2017-09-15T21:35:32.514Z,76.80
2017-09-15T21:37:34.203Z,76.60
2017-09-15T21:39:35.161Z,76.40
2017-09-15T21:41:36.113Z,76.40
2017-09-15T21:43:37.060Z,76.70
2017-09-15T21:45:38.017Z,76.70
2017-09-15T21:47:39.713Z,76.10
2017-09-15T21:49:40.672Z,76.10
2017-09-15T21:51:41.621Z,76.40
2017-09-15T21:53:42.613Z,76.40
2017-09-15T21:55:43.592Z,76.70
2017-09-15T21:57:44.543Z,76.90
2017-09-15T21:59:46.240Z,77.30
2017-09-15T22:01:47.185Z,77.30
2017-09-15T22:03:54.208Z,77.50
2017-09-15T22:05:55.901Z,78.90
2017-09-15T22:07:56.922Z,78.00
2017-09-15T22:09:57.864Z,78.10
2017-09-15T22:11:58.816Z,78.10
2017-09-15T22:13:59.777Z,78.30
2017-09-15T22:16:00.734Z,78.20
2017-09-15T22:18:01.689Z,78.20
2017-09-15T22:20:03.381Z,77.80
2017-09-15T22:22:04.353Z,77.80
2017-09-15T22:24:05.309Z,77.90
2017-09-15T22:26:07.008Z,77.80
2017-09-15T22:28:07.977Z,77.80
2017-09-15T22:30:08.933Z,77.60
2017-09-15T22:32:10.637Z,77.50
2017-09-15T22:34:11.586Z,77.50
2017-09-15T22:36:12.576Z,77.50
2017-09-15T22:38:13.521Z,77.50
2017-09-15T22:40:14.466Z,77.90
2017-09-15T22:42:15.433Z,77.30
2017-09-15T22:44:16.386Z,77.30
2017-09-15T22:46:17.341Z,77.70
2017-09-15T22:48:19.033Z,78.10
2017-09-15T22:50:19.992Z,78.00
2017-09-15T22:52:20.944Z,78.40
2017-09-15T22:54:29.974Z,78.30
2017-09-15T22:56:31.668Z,79.10
2017-09-15T22:58:32.615Z,78.30
2017-09-15T23:00:33.564Z,78.30
2017-09-15T23:02:34.529Z,78.30
2017-09-15T23:04:35.485Z,78.30
2017-09-15T23:06:37.200Z,78.20
2017-09-15T23:08:38.161Z,78.90
2017-09-15T23:10:39.845Z,78.30
2017-09-15T23:12:40.800Z,78.10
2017-09-15T23:14:41.752Z,78.90
2017-09-15T23:16:42.709Z,79.00
2017-09-15T23:18:44.504Z,78.20
2017-09-15T23:20:45.444Z,78.20
2017-09-15T23:22:46.398Z,78.10
2017-09-15T23:24:47.366Z,77.60
2017-09-15T23:26:48.318Z,78.10
2017-09-15T23:28:49.293Z,78.00
2017-09-15T23:30:50.272Z,78.90
2017-09-15T23:32:51.231Z,78.00
2017-09-15T23:34:52.190Z,78.20
2017-09-15T23:36:53.141Z,80.00
2017-09-15T23:38:54.120Z,79.90
2017-09-15T23:40:55.065Z,80.10
2017-09-15T23:42:56.378Z,80.50
2017-09-15T23:44:57.338Z,80.40
2017-09-15T23:46:58.444Z,79.30
2017-09-15T23:48:59.411Z,79.20
2017-09-15T23:51:00.357Z,78.70
2017-09-15T23:53:02.053Z,78.20
2017-09-15T23:55:03.012Z,78.20
2017-09-15T23:57:03.981Z,78.30
2017-09-15T23:59:05.721Z,78.00
